createdAt,value
2018-05-09T00:01:44.322Z,73.67
2018-05-09T00:02:44.626Z,74.34
2018-05-09T00:03:44.406Z,74.05
2018-05-09T00:05:44.473Z,73.86
2018-05-09T00:06:44.224Z,74.24
2018-05-09T00:07:44.214Z,73.67
2018-05-09T00:08:44.145Z,73.48
2018-05-09T00:10:44.117Z,73.86
2018-05-09T00:11:44.212Z,73.67
2018-05-09T00:12:44.437Z,73.58
2018-05-09T00:14:44.059Z,73.10
2018-05-09T00:15:44.188Z,73.67
2018-05-09T00:16:44.323Z,72.72
2018-05-09T00:17:44.077Z,73.10
2018-05-09T00:18:44.060Z,72.39
2018-05-09T00:19:43.992Z,72.68
2018-05-09T00:20:43.967Z,72.62
2018-05-09T00:21:43.958Z,72.30
2018-05-09T00:22:43.948Z,72.68
2018-05-09T00:23:44.275Z,72.58
2018-05-09T00:24:44.081Z,72.30
2018-05-09T00:25:44.201Z,72.58
2018-05-09T00:26:44.090Z,72.30
2018-05-09T00:27:44.003Z,71.63
2018-05-09T00:29:44.476Z,71.25
2018-05-09T00:30:44.603Z,71.63
2018-05-09T00:31:43.886Z,71.63
2018-05-09T00:32:43.798Z,71.44
2018-05-09T00:33:43.781Z,70.67
2018-05-09T00:34:43.784Z,70.87
2018-05-09T00:35:43.767Z,71.53
2018-05-09T00:36:44.159Z,71.15
2018-05-09T00:37:43.977Z,70.67
2018-05-09T00:38:43.708Z,70.67
2018-05-09T00:39:43.707Z,70.77
2018-05-09T00:40:43.768Z,70.77
2018-05-09T00:41:43.747Z,70.39
2018-05-09T00:42:43.991Z,70.67
2018-05-09T00:43:43.768Z,70.20
2018-05-09T00:44:43.750Z,70.39
2018-05-09T00:45:43.740Z,70.10
2018-05-09T00:46:43.698Z,68.96
2018-05-09T00:47:43.668Z,69.43
2018-05-09T00:48:43.880Z,69.62
2018-05-09T00:49:43.598Z,70.10
2018-05-09T00:52:43.645Z,70.29
2018-05-09T00:53:43.500Z,69.91
2018-05-09T00:54:43.873Z,69.62
2018-05-09T00:55:43.615Z,69.72
2018-05-09T00:56:43.604Z,69.91
2018-05-09T00:57:43.573Z,69.05
2018-05-09T00:58:43.493Z,68.73
2018-05-09T00:59:43.408Z,69.11
2018-05-09T01:00:43.695Z,68.73
2018-05-09T01:01:43.379Z,68.73
2018-05-09T01:03:43.393Z,68.82
2018-05-09T01:04:43.584Z,68.26
2018-05-09T01:05:43.401Z,69.40
2018-05-09T01:06:43.605Z,68.73
2018-05-09T01:07:43.292Z,68.73
2018-05-09T01:10:43.496Z,68.26
2018-05-09T01:12:43.515Z,68.16
2018-05-09T01:13:43.301Z,67.77
2018-05-09T01:14:43.280Z,68.06
2018-05-09T01:16:43.300Z,67.58
2018-05-09T01:17:43.379Z,67.68
2018-05-09T01:18:43.480Z,67.58
2018-05-09T01:19:43.903Z,67.11
2018-05-09T01:20:43.156Z,67.01
2018-05-09T01:21:43.168Z,66.92
2018-05-09T01:22:43.200Z,66.82
2018-05-09T01:23:43.184Z,67.11
2018-05-09T01:25:43.463Z,66.92
2018-05-09T01:27:43.002Z,67.01
2018-05-09T01:28:43.056Z,66.82
2018-05-09T01:29:43.088Z,66.53
2018-05-09T01:32:43.260Z,64.91
2018-05-09T01:33:42.891Z,64.15
2018-05-09T01:34:42.966Z,64.12
2018-05-09T01:35:42.969Z,64.62
2018-05-09T01:36:43.098Z,65.10
2018-05-09T01:38:43.128Z,64.40
2018-05-09T01:39:42.901Z,64.31
2018-05-09T01:40:42.986Z,64.40
2018-05-09T01:41:42.857Z,64.43
2018-05-09T01:42:42.877Z,64.78
2018-05-09T01:43:42.910Z,64.12
2018-05-09T01:44:42.733Z,64.53
2018-05-09T01:45:43.189Z,64.78
2018-05-09T01:47:42.756Z,64.59
2018-05-09T01:48:42.792Z,64.97
2018-05-09T01:49:42.781Z,64.69
2018-05-09T01:50:42.762Z,64.31
2018-05-09T01:51:42.649Z,64.40
2018-05-09T01:52:42.959Z,64.31
2018-05-09T01:53:42.602Z,64.21
2018-05-09T01:54:42.583Z,64.31
2018-05-09T01:55:42.684Z,64.02
2018-05-09T01:56:42.601Z,64.02
2018-05-09T01:57:42.873Z,64.21
2018-05-09T01:58:42.530Z,64.31
2018-05-09T01:59:42.882Z,63.64
2018-05-09T02:00:42.500Z,63.73
2018-05-09T02:01:42.478Z,63.16
2018-05-09T02:02:42.461Z,62.88
2018-05-09T02:03:42.494Z,62.88
2018-05-09T02:04:42.628Z,62.97
2018-05-09T02:05:42.465Z,62.59
2018-05-09T02:06:42.714Z,62.21
2018-05-09T02:07:42.378Z,62.02
2018-05-09T02:08:42.356Z,62.68
2018-05-09T02:09:42.423Z,61.54
2018-05-09T02:10:42.464Z,62.40
2018-05-09T02:11:42.468Z,62.97
2018-05-09T02:12:42.791Z,62.78
2018-05-09T02:13:42.367Z,62.68
2018-05-09T02:14:42.359Z,63.07
2018-05-09T02:15:42.359Z,63.16
2018-05-09T02:16:42.289Z,62.97
2018-05-09T02:17:42.335Z,62.97
2018-05-09T02:18:42.535Z,62.88
2018-05-09T02:19:42.200Z,62.40
2018-05-09T02:20:42.174Z,62.75
2018-05-09T02:22:42.244Z,62.59
2018-05-09T02:23:42.180Z,62.49
2018-05-09T02:24:42.420Z,62.27
2018-05-09T02:25:42.101Z,61.80
2018-05-09T02:26:42.173Z,61.89
2018-05-09T02:27:42.075Z,61.41
2018-05-09T02:28:42.311Z,61.32
2018-05-09T02:29:42.223Z,61.32
2018-05-09T02:30:42.332Z,61.04
2018-05-09T02:32:42.055Z,61.13
2018-05-09T02:33:41.978Z,61.22
2018-05-09T02:34:42.026Z,60.55
2018-05-09T02:35:42.186Z,60.55
2018-05-09T02:36:42.239Z,60.46
2018-05-09T02:37:41.926Z,60.84
2018-05-09T02:38:41.890Z,60.65
2018-05-09T02:39:41.971Z,60.08
2018-05-09T02:40:41.916Z,59.70
2018-05-09T02:41:41.905Z,59.79
2018-05-09T02:42:42.159Z,59.60
2018-05-09T02:43:41.829Z,59.51
2018-05-09T02:44:41.815Z,59.79
2018-05-09T02:45:41.792Z,59.60
2018-05-09T02:46:41.886Z,59.31
2018-05-09T02:47:41.854Z,59.60
2018-05-09T02:48:42.078Z,59.51
2018-05-09T02:49:41.803Z,58.55
2018-05-09T02:50:41.711Z,59.12
2018-05-09T02:52:41.719Z,58.17
2018-05-09T02:53:41.712Z,57.41
2018-05-09T02:54:41.638Z,58.46
2018-05-09T02:55:41.923Z,57.50
2018-05-09T02:56:41.627Z,57.12
2018-05-09T02:57:41.694Z,57.22
2018-05-09T02:58:41.787Z,57.22
2018-05-09T02:59:41.801Z,57.31
2018-05-09T03:00:41.775Z,57.41
2018-05-09T03:01:41.665Z,56.07
2018-05-09T03:02:41.945Z,56.26
2018-05-09T03:03:41.587Z,56.17
2018-05-09T03:04:41.657Z,56.17
2018-05-09T03:05:42.230Z,56.74
2018-05-09T03:06:41.538Z,56.84
2018-05-09T03:07:41.455Z,56.74
2018-05-09T03:08:41.432Z,56.93
2018-05-09T03:09:41.720Z,56.84
2018-05-09T03:10:41.385Z,56.46
2018-05-09T03:11:41.431Z,57.12
2018-05-09T03:13:41.437Z,57.41
2018-05-09T03:14:41.326Z,56.65
2018-05-09T03:15:41.310Z,56.84
2018-05-09T03:16:41.800Z,56.65
2018-05-09T03:17:41.329Z,57.03
2018-05-09T03:19:41.361Z,57.12
2018-05-09T03:20:41.982Z,56.93
2018-05-09T03:21:42.789Z,57.22
2018-05-09T03:22:41.265Z,56.43
2018-05-09T03:23:41.498Z,56.17
2018-05-09T03:24:41.199Z,55.69
2018-05-09T03:25:41.260Z,55.66
2018-05-09T03:27:41.169Z,55.47
2018-05-09T03:28:41.170Z,55.47
2018-05-09T03:29:41.145Z,55.38
2018-05-09T03:30:41.493Z,54.90
2018-05-09T03:31:41.134Z,54.80
2018-05-09T03:32:41.111Z,54.43
2018-05-09T03:33:41.073Z,54.71
2018-05-09T03:34:41.105Z,54.80
2018-05-09T03:35:40.996Z,54.52
2018-05-09T03:36:40.965Z,54.43
2018-05-09T03:37:41.264Z,54.24
2018-05-09T03:38:40.942Z,54.14
2018-05-09T03:39:40.983Z,53.47
2018-05-09T03:40:40.962Z,53.28
2018-05-09T03:42:40.918Z,53.56
2018-05-09T03:43:40.861Z,53.95
2018-05-09T03:44:41.145Z,53.66
2018-05-09T03:45:40.986Z,53.38
2018-05-09T03:46:40.990Z,53.00
2018-05-09T03:47:40.921Z,52.80
2018-05-09T03:48:40.778Z,52.80
2018-05-09T03:49:40.776Z,52.80
2018-05-09T03:50:41.053Z,53.28
2018-05-09T03:51:40.834Z,53.56
2018-05-09T03:52:40.818Z,54.33
2018-05-09T03:53:40.754Z,54.24
2018-05-09T03:54:40.942Z,53.85
2018-05-09T03:55:40.675Z,54.04
2018-05-09T03:56:40.962Z,53.95
2018-05-09T03:57:40.651Z,53.95
2018-05-09T03:59:40.708Z,54.24
2018-05-09T04:00:40.698Z,54.33
2018-05-09T04:01:41.030Z,52.71
2018-05-09T04:02:40.859Z,52.83
2018-05-09T04:03:40.552Z,53.12
2018-05-09T04:04:40.584Z,53.88
2018-05-09T04:05:40.513Z,54.07
2018-05-09T04:07:40.846Z,55.38
2018-05-09T04:08:41.273Z,55.28
2018-05-09T04:10:41.161Z,55.00
2018-05-09T04:11:40.528Z,54.93
2018-05-09T04:12:40.464Z,54.80
2018-05-09T04:13:40.505Z,54.64
2018-05-09T04:14:40.533Z,54.93
2018-05-09T04:15:40.401Z,54.64
2018-05-09T04:16:40.660Z,54.45
2018-05-09T04:17:40.322Z,54.36
2018-05-09T04:18:40.609Z,54.07
2018-05-09T04:20:40.424Z,53.97
2018-05-09T04:21:40.305Z,54.17
2018-05-09T04:22:40.584Z,54.55
2018-05-09T04:23:40.213Z,54.83
2018-05-09T04:24:40.196Z,54.93
2018-05-09T04:27:40.423Z,55.79
2018-05-09T04:28:40.255Z,55.41
2018-05-09T04:29:40.701Z,55.50
2018-05-09T04:30:40.103Z,56.36
2018-05-09T04:31:40.180Z,56.26
2018-05-09T04:32:40.177Z,56.26
2018-05-09T04:34:40.084Z,55.60
2018-05-09T04:35:40.194Z,55.43
2018-05-09T04:36:40.137Z,54.86
2018-05-09T04:37:40.002Z,55.05
2018-05-09T04:38:40.050Z,54.19
2018-05-09T04:39:40.303Z,54.48
2018-05-09T04:40:39.967Z,54.38
2018-05-09T04:41:39.982Z,55.91
2018-05-09T04:42:40.258Z,54.96
2018-05-09T04:43:39.947Z,54.77
2018-05-09T04:44:39.878Z,54.57
2018-05-09T04:45:39.868Z,54.77
2018-05-09T04:46:39.865Z,55.15
2018-05-09T04:47:39.835Z,54.67
2018-05-09T04:50:39.856Z,53.74
2018-05-09T04:51:39.778Z,53.74
2018-05-09T04:52:39.937Z,54.41
2018-05-09T04:53:39.772Z,54.13
2018-05-09T04:54:44.753Z,54.72
2018-05-09T04:55:39.835Z,55.40
2018-05-09T04:56:41.480Z,57.02
2018-05-09T04:57:39.688Z,57.02
2018-05-09T04:58:39.664Z,56.92
2018-05-09T04:59:39.714Z,57.11
2018-05-09T05:00:39.706Z,58.45
2018-05-09T05:01:39.673Z,57.31
2018-05-09T05:02:39.687Z,59.02
2018-05-09T05:03:39.883Z,59.81
2018-05-09T05:04:39.572Z,60.39
2018-05-09T05:05:39.628Z,61.72
2018-05-09T05:06:39.805Z,61.44
2018-05-09T05:07:39.545Z,61.63
2018-05-09T05:08:39.522Z,61.92
2018-05-09T05:09:39.819Z,62.49
2018-05-09T05:10:39.479Z,63.45
2018-05-09T05:11:39.564Z,63.35
2018-05-09T05:12:39.674Z,65.11
2018-05-09T05:13:39.488Z,65.11
2018-05-09T05:14:39.425Z,65.11
2018-05-09T05:15:39.782Z,66.54
2018-05-09T05:16:39.471Z,65.87
2018-05-09T05:17:39.463Z,66.73
2018-05-09T05:18:39.496Z,66.83
2018-05-09T05:19:39.486Z,67.78
2018-05-09T05:20:39.419Z,67.88
2018-05-09T05:21:39.643Z,68.01
2018-05-09T05:22:39.317Z,70.84
2018-05-09T05:23:39.374Z,70.65
2018-05-09T05:24:39.331Z,71.36
2018-05-09T05:25:39.447Z,71.73
2018-05-09T05:26:39.399Z,73.08
2018-05-09T05:27:39.557Z,74.13
2018-05-09T05:28:39.314Z,72.98
2018-05-09T05:29:39.273Z,74.99
2018-05-09T05:30:39.267Z,76.23
2018-05-09T05:31:39.224Z,77.28
2018-05-09T05:32:39.445Z,77.23
2018-05-09T05:33:39.464Z,75.22
2018-05-09T05:34:39.141Z,76.27
2018-05-09T05:35:39.118Z,77.04
2018-05-09T05:36:39.117Z,76.37
2018-05-09T05:37:39.097Z,75.41
2018-05-09T05:38:39.353Z,74.45
2018-05-09T05:39:40.015Z,74.65
2018-05-09T05:40:39.061Z,76.08
2018-05-09T05:41:39.052Z,77.61
2018-05-09T05:42:39.030Z,76.75
2018-05-09T05:43:39.009Z,79.08
2018-05-09T05:44:39.201Z,77.55
2018-05-09T05:45:39.294Z,78.51
2018-05-09T05:46:39.042Z,78.70
2018-05-09T05:47:39.005Z,78.89
2018-05-09T05:48:38.961Z,79.37
2018-05-09T05:49:38.929Z,79.85
2018-05-09T05:50:38.976Z,78.61
2018-05-09T05:51:39.252Z,79.95
2018-05-09T05:52:39.159Z,80.04
2018-05-09T05:53:38.905Z,78.93
2018-05-09T05:54:38.865Z,80.94
2018-05-09T05:55:38.846Z,83.63
2018-05-09T05:56:38.842Z,82.67
2018-05-09T05:57:38.825Z,81.43
2018-05-09T05:58:38.913Z,80.18
2018-05-09T05:59:38.851Z,80.41
2018-05-09T06:00:38.853Z,81.46
2018-05-09T06:01:38.782Z,81.18
2018-05-09T06:02:38.861Z,80.41
2018-05-09T06:03:38.755Z,81.66
2018-05-09T06:04:39.077Z,81.08
2018-05-09T06:05:38.772Z,83.00
2018-05-09T06:06:38.711Z,83.58
2018-05-09T06:07:38.715Z,82.81
2018-05-09T06:08:38.675Z,83.09
2018-05-09T06:09:38.675Z,83.14
2018-05-09T06:10:39.006Z,83.91
2018-05-09T06:11:39.452Z,84.19
2018-05-09T06:12:38.632Z,82.94
2018-05-09T06:13:38.621Z,84.19
2018-05-09T06:14:38.601Z,84.00
2018-05-09T06:15:38.586Z,82.56
2018-05-09T06:16:38.581Z,85.44
2018-05-09T06:17:38.926Z,83.71
2018-05-09T06:18:38.612Z,83.94
2018-05-09T06:19:38.592Z,85.19
2018-05-09T06:20:38.540Z,85.77
2018-05-09T06:21:38.658Z,85.48
2018-05-09T06:22:38.663Z,85.86
2018-05-09T06:24:38.834Z,86.92
2018-05-09T06:25:38.520Z,85.62
2018-05-09T06:26:38.543Z,85.81
2018-05-09T06:27:38.452Z,86.19
2018-05-09T06:28:38.436Z,85.71
2018-05-09T06:30:38.836Z,85.62
2018-05-09T06:31:38.540Z,87.63
2018-05-09T06:32:38.504Z,87.05
2018-05-09T06:33:38.454Z,88.11
2018-05-09T06:34:38.537Z,88.02
2018-05-09T06:35:38.442Z,86.77
2018-05-09T06:36:38.447Z,87.39
2018-05-09T06:37:38.871Z,88.06
2018-05-09T06:38:38.467Z,88.35
2018-05-09T06:40:38.386Z,87.87
2018-05-09T06:41:38.285Z,89.22
2018-05-09T06:42:38.274Z,85.95
2018-05-09T06:43:38.634Z,88.30
2018-05-09T06:44:38.994Z,89.83
2018-05-09T06:45:38.233Z,87.92
2018-05-09T06:47:38.217Z,88.59
2018-05-09T06:49:38.488Z,89.45
2018-05-09T06:50:38.226Z,89.98
2018-05-09T06:51:38.256Z,89.26
2018-05-09T06:52:38.198Z,89.59
2018-05-09T06:53:38.207Z,89.59
2018-05-09T06:54:38.224Z,89.11
2018-05-09T06:55:38.421Z,90.07
2018-05-09T06:56:38.150Z,88.24
2018-05-09T06:57:38.160Z,88.63
2018-05-09T06:58:38.079Z,89.30
2018-05-09T06:59:38.073Z,88.82
2018-05-09T07:00:38.143Z,89.30
2018-05-09T07:02:38.489Z,88.10
2018-05-09T07:03:38.172Z,87.52
2018-05-09T07:04:38.162Z,86.94
2018-05-09T07:05:38.016Z,87.04
2018-05-09T07:06:38.281Z,86.27
2018-05-09T07:07:37.987Z,86.85
2018-05-09T07:08:38.023Z,88.04
2018-05-09T07:09:38.085Z,88.04
2018-05-09T07:10:37.954Z,87.27
2018-05-09T07:11:37.947Z,87.46
2018-05-09T07:12:38.182Z,87.18
2018-05-09T07:13:37.988Z,87.60
2018-05-09T07:14:38.340Z,86.65
2018-05-09T07:15:37.947Z,84.62
2018-05-09T07:16:37.960Z,83.47
2018-05-09T07:17:37.948Z,83.75
2018-05-09T07:18:37.866Z,84.05
2018-05-09T07:19:37.938Z,84.91
2018-05-09T07:20:38.326Z,85.39
2018-05-09T07:21:37.904Z,85.05
2018-05-09T07:22:37.906Z,83.80
2018-05-09T07:24:37.872Z,80.27
2018-05-09T07:25:37.855Z,78.25
2018-05-09T07:26:37.784Z,76.45
2018-05-09T07:27:38.082Z,71.32
2018-05-09T07:28:37.910Z,67.20
2018-05-09T07:29:37.762Z,62.92
2018-05-09T07:30:37.903Z,59.21
2018-05-09T07:31:37.777Z,55.56
2018-05-09T07:32:37.829Z,53.58
2018-05-09T07:33:37.938Z,51.57
2018-05-09T07:35:38.022Z,47.66
2018-05-09T07:37:37.676Z,44.97
2018-05-09T07:38:37.733Z,45.48
2018-05-09T07:41:38.109Z,43.58
2018-05-09T07:43:37.633Z,41.44
2018-05-09T07:44:37.742Z,42.31
2018-05-09T07:45:38.407Z,41.34
2018-05-09T07:46:37.683Z,40.97
2018-05-09T07:47:37.980Z,40.97
2018-05-09T07:48:37.584Z,40.41
2018-05-09T07:49:37.593Z,40.29
2018-05-09T07:50:37.577Z,41.48
2018-05-09T07:51:37.663Z,41.67
2018-05-09T07:52:37.856Z,39.55
2018-05-09T07:53:37.856Z,39.06
2018-05-09T07:54:37.553Z,38.57
2018-05-09T07:55:37.661Z,38.18
2018-05-09T07:56:37.641Z,38.52
2018-05-09T07:57:38.110Z,38.73
2018-05-09T07:58:37.994Z,38.65
2018-05-09T07:59:37.823Z,39.12
2018-05-09T08:00:38.106Z,39.80
2018-05-09T08:01:37.646Z,38.26
2018-05-09T08:02:37.500Z,38.38
2018-05-09T08:04:37.592Z,38.18
2018-05-09T08:05:37.537Z,39.08
2018-05-09T08:06:37.489Z,38.20
2018-05-09T08:07:37.862Z,38.69
2018-05-09T08:09:37.465Z,37.54
2018-05-09T08:10:37.522Z,37.73
2018-05-09T08:11:38.701Z,37.85
2018-05-09T08:12:37.604Z,37.05
2018-05-09T08:13:37.759Z,36.66
2018-05-09T08:14:37.539Z,36.45
2018-05-09T08:15:37.439Z,36.24
2018-05-09T08:16:37.484Z,38.48
2018-05-09T08:17:37.483Z,38.89
2018-05-09T08:18:37.678Z,36.76
2018-05-09T08:19:37.734Z,36.58
2018-05-09T08:20:37.418Z,36.41
2018-05-09T08:21:37.489Z,35.82
2018-05-09T08:22:37.428Z,34.77
2018-05-09T08:23:37.402Z,36.02
2018-05-09T08:24:37.457Z,36.43
2018-05-09T08:25:39.572Z,35.35
2018-05-09T08:26:37.407Z,36.04
2018-05-09T08:27:37.470Z,35.74
2018-05-09T08:28:37.474Z,35.04
2018-05-09T08:29:37.393Z,36.11
2018-05-09T08:30:37.392Z,35.84
2018-05-09T08:31:37.730Z,34.97
2018-05-09T08:32:37.437Z,34.78
2018-05-09T08:34:37.481Z,35.85
2018-05-09T08:35:37.376Z,35.35
2018-05-09T08:36:37.403Z,35.74
2018-05-09T08:37:37.480Z,35.27
2018-05-09T08:38:37.824Z,35.85
2018-05-09T08:39:37.524Z,35.48
2018-05-09T08:40:37.512Z,35.21
2018-05-09T08:41:37.437Z,35.69
2018-05-09T08:42:37.366Z,33.25
2018-05-09T08:43:37.468Z,34.11
2018-05-09T08:44:37.654Z,34.52
2018-05-09T08:45:37.668Z,34.91
2018-05-09T08:46:37.466Z,33.54
2018-05-09T08:47:37.458Z,34.03
2018-05-09T08:48:37.460Z,34.34
2018-05-09T08:50:37.661Z,34.62
2018-05-09T08:51:37.417Z,34.13
2018-05-09T08:52:37.497Z,34.81
2018-05-09T08:53:37.354Z,35.11
2018-05-09T08:54:37.351Z,34.54
2018-05-09T08:55:37.344Z,34.52
2018-05-09T08:56:37.655Z,34.81
2018-05-09T08:57:37.676Z,34.64
2018-05-09T08:58:37.420Z,33.17
2018-05-09T08:59:37.343Z,33.07
2018-05-09T09:00:37.423Z,34.16
2018-05-09T09:01:37.425Z,32.50
2018-05-09T09:02:37.647Z,33.46
2018-05-09T09:03:37.529Z,32.99
2018-05-09T09:04:37.445Z,33.85
2018-05-09T09:05:37.350Z,33.46
2018-05-09T09:06:37.348Z,33.74
2018-05-09T09:07:37.342Z,34.64
2018-05-09T09:08:37.647Z,34.08
2018-05-09T09:09:38.594Z,33.39
2018-05-09T09:10:37.391Z,33.04
2018-05-09T09:11:37.345Z,31.96
2018-05-09T09:12:37.353Z,32.92
2018-05-09T09:14:37.776Z,32.82
2018-05-09T09:15:37.493Z,32.04
2018-05-09T09:16:37.481Z,32.82
2018-05-09T09:17:37.581Z,31.68
2018-05-09T09:18:37.398Z,30.68
2018-05-09T09:19:37.350Z,30.96
2018-05-09T09:20:37.854Z,32.03
2018-05-09T09:21:37.395Z,32.81
2018-05-09T09:22:37.398Z,33.29
2018-05-09T09:23:37.411Z,32.92
2018-05-09T09:24:37.359Z,31.67
2018-05-09T09:25:37.385Z,32.15
2018-05-09T09:26:37.351Z,31.86
2018-05-09T09:27:37.706Z,30.98
2018-05-09T09:28:37.412Z,31.48
2018-05-09T09:29:37.463Z,31.37
2018-05-09T09:30:37.361Z,30.49
2018-05-09T09:31:37.361Z,30.49
2018-05-09T09:32:37.374Z,31.57
2018-05-09T09:33:37.614Z,31.96
2018-05-09T09:34:37.664Z,32.07
2018-05-09T09:35:37.360Z,31.58
2018-05-09T09:36:37.369Z,31.17
2018-05-09T09:37:37.377Z,31.09
2018-05-09T09:38:37.461Z,32.06
2018-05-09T09:39:37.429Z,32.06
2018-05-09T09:40:37.729Z,31.97
2018-05-09T09:41:37.379Z,31.58
2018-05-09T09:42:37.379Z,31.01
2018-05-09T09:43:37.378Z,30.94
2018-05-09T09:44:37.410Z,29.87
2018-05-09T09:46:39.418Z,30.15
2018-05-09T09:47:38.256Z,29.85
2018-05-09T09:48:37.386Z,30.24
2018-05-09T09:49:37.418Z,30.24
2018-05-09T09:50:37.432Z,29.75
2018-05-09T09:51:38.900Z,29.63
2018-05-09T09:52:37.849Z,30.42
2018-05-09T09:53:38.376Z,30.32
2018-05-09T09:54:37.533Z,30.46
2018-05-09T09:55:37.503Z,30.85
2018-05-09T09:56:37.513Z,30.64
2018-05-09T09:57:38.923Z,31.93
2018-05-09T09:58:37.733Z,32.14
2018-05-09T09:59:37.632Z,31.74
2018-05-09T10:00:37.449Z,31.17
2018-05-09T10:01:37.528Z,30.80
2018-05-09T10:02:37.424Z,30.39
2018-05-09T10:03:37.485Z,31.14
2018-05-09T10:04:37.584Z,30.13
2018-05-09T10:05:37.738Z,31.13
2018-05-09T10:06:37.431Z,31.34
2018-05-09T10:07:37.534Z,30.49
2018-05-09T10:08:37.998Z,30.11
2018-05-09T10:09:37.490Z,29.03
2018-05-09T10:11:37.807Z,29.85
2018-05-09T10:12:37.460Z,30.71
2018-05-09T10:13:37.449Z,30.98
2018-05-09T10:14:37.466Z,32.09
2018-05-09T10:15:37.623Z,31.62
2018-05-09T10:17:37.838Z,30.85
2018-05-09T10:18:37.475Z,30.64
2018-05-09T10:19:37.608Z,31.03
2018-05-09T10:20:37.849Z,30.75
2018-05-09T10:21:40.090Z,30.39
2018-05-09T10:22:37.479Z,29.52
2018-05-09T10:23:37.851Z,29.43
2018-05-09T10:24:37.512Z,29.03
2018-05-09T10:25:37.557Z,30.01
2018-05-09T10:26:37.493Z,30.90
2018-05-09T10:27:37.563Z,30.68
2018-05-09T10:28:37.703Z,29.43
2018-05-09T10:29:37.506Z,29.35
2018-05-09T10:30:37.512Z,28.86
2018-05-09T10:31:37.614Z,28.68
2018-05-09T10:32:37.526Z,28.99
2018-05-09T10:34:37.869Z,29.25
2018-05-09T10:35:37.657Z,28.96
2018-05-09T10:36:37.658Z,29.21
2018-05-09T10:37:37.544Z,30.29
2018-05-09T10:38:37.612Z,29.72
2018-05-09T10:39:37.611Z,30.12
2018-05-09T10:40:37.865Z,29.21
2018-05-09T10:41:37.595Z,29.62
2018-05-09T10:42:37.597Z,28.17
2018-05-09T10:43:37.609Z,28.45
2018-05-09T10:44:37.573Z,29.17
2018-05-09T10:45:37.567Z,31.28
2018-05-09T10:46:37.874Z,31.68
2018-05-09T10:47:37.659Z,31.83
2018-05-09T10:48:37.676Z,30.68
2018-05-09T10:49:37.632Z,29.33
2018-05-09T10:50:37.598Z,29.05
2018-05-09T10:51:37.657Z,29.83
2018-05-09T10:52:37.905Z,29.16
2018-05-09T10:53:37.611Z,28.86
2018-05-09T10:55:37.684Z,28.08
2018-05-09T10:56:37.736Z,28.86
2018-05-09T10:57:37.690Z,29.16
2018-05-09T10:59:37.951Z,28.15
2018-05-09T11:00:37.659Z,28.99
2018-05-09T11:02:40.850Z,29.98
2018-05-09T11:03:37.646Z,30.60
2018-05-09T11:04:37.666Z,29.06
2018-05-09T11:05:37.951Z,29.25
2018-05-09T11:06:37.659Z,29.16
2018-05-09T11:07:37.659Z,29.19
2018-05-09T11:08:38.959Z,28.59
2018-05-09T11:09:37.759Z,28.58
2018-05-09T11:10:37.863Z,28.25
2018-05-09T11:11:37.976Z,29.24
2018-05-09T11:12:37.677Z,28.57
2018-05-09T11:13:37.696Z,28.88
2018-05-09T11:14:37.782Z,27.89
2018-05-09T11:15:37.961Z,27.00
2018-05-09T11:16:37.698Z,28.15
2018-05-09T11:17:38.051Z,29.30
2018-05-09T11:18:37.731Z,30.10
2018-05-09T11:19:37.712Z,29.43
2018-05-09T11:20:37.715Z,28.95
2018-05-09T11:21:37.828Z,28.55
2018-05-09T11:22:37.986Z,28.29
2018-05-09T11:23:38.039Z,27.47
2018-05-09T11:24:37.752Z,28.30
2018-05-09T11:25:37.733Z,29.58
2018-05-09T11:26:37.733Z,29.28
2018-05-09T11:27:37.793Z,29.21
2018-05-09T11:28:37.854Z,29.05
2018-05-09T11:29:38.047Z,27.37
2018-05-09T11:30:37.769Z,27.18
2018-05-09T11:31:37.754Z,27.80
2018-05-09T11:32:37.761Z,27.22
2018-05-09T11:33:37.867Z,27.23
2018-05-09T11:34:40.647Z,26.95
2018-05-09T11:35:38.095Z,25.87
2018-05-09T11:36:37.789Z,26.42
2018-05-09T11:38:37.813Z,27.78
2018-05-09T11:39:37.810Z,28.27
2018-05-09T11:40:37.906Z,28.09
2018-05-09T11:42:38.285Z,27.89
2018-05-09T11:43:37.863Z,27.98
2018-05-09T11:44:37.858Z,28.09
2018-05-09T11:45:37.837Z,27.80
2018-05-09T11:46:38.084Z,28.40
2018-05-09T11:47:38.133Z,27.92
2018-05-09T11:48:37.842Z,27.33
2018-05-09T11:49:37.878Z,26.32
2018-05-09T11:51:38.236Z,27.23
2018-05-09T11:52:38.016Z,27.43
2018-05-09T11:53:38.218Z,26.62
2018-05-09T11:54:37.872Z,27.08
2018-05-09T11:55:38.238Z,28.27
2018-05-09T11:56:39.180Z,28.19
2018-05-09T11:57:37.906Z,27.32
2018-05-09T11:58:38.093Z,27.33
2018-05-09T11:59:38.400Z,26.91
2018-05-09T12:00:39.578Z,27.80
2018-05-09T12:02:40.940Z,28.89
2018-05-09T12:03:38.130Z,27.04
2018-05-09T12:04:38.067Z,27.23
2018-05-09T12:05:38.253Z,26.64
2018-05-09T12:06:38.241Z,26.92
2018-05-09T12:07:37.942Z,27.32
2018-05-09T12:09:38.143Z,26.35
2018-05-09T12:10:38.087Z,25.87
2018-05-09T12:11:38.264Z,26.54
2018-05-09T12:12:38.081Z,27.43
2018-05-09T12:13:38.185Z,26.56
2018-05-09T12:14:38.596Z,26.75
2018-05-09T12:15:37.970Z,26.74
2018-05-09T12:16:37.979Z,26.14
2018-05-09T12:17:38.282Z,26.72
2018-05-09T12:18:37.996Z,26.62
2018-05-09T12:19:38.044Z,26.89
2018-05-09T12:20:38.100Z,28.49
2018-05-09T12:21:38.012Z,29.53
2018-05-09T12:22:38.145Z,29.55
2018-05-09T12:23:38.320Z,29.83
2018-05-09T12:24:38.232Z,29.83
2018-05-09T12:25:38.080Z,30.37
2018-05-09T12:26:38.632Z,31.51
2018-05-09T12:27:38.040Z,30.76
2018-05-09T12:28:38.106Z,30.49
2018-05-09T12:30:38.349Z,29.11
2018-05-09T12:31:41.349Z,27.97
2018-05-09T12:32:38.058Z,26.17
2018-05-09T12:33:38.058Z,27.31
2018-05-09T12:34:38.058Z,28.01
2018-05-09T12:35:38.139Z,28.59
2018-05-09T12:36:38.438Z,27.90
2018-05-09T12:37:38.195Z,28.99
2018-05-09T12:38:38.174Z,27.74
2018-05-09T12:39:38.148Z,27.75
2018-05-09T12:40:38.162Z,28.17
2018-05-09T12:41:38.089Z,28.00
2018-05-09T12:42:38.923Z,27.43
2018-05-09T12:43:38.270Z,27.15
2018-05-09T12:44:38.253Z,25.96
2018-05-09T12:46:38.214Z,25.83
2018-05-09T12:47:38.222Z,26.18
2018-05-09T12:48:38.199Z,28.53
2018-05-09T12:49:38.473Z,28.25
2018-05-09T12:50:38.162Z,26.98
2018-05-09T12:51:38.124Z,27.49
2018-05-09T12:52:38.129Z,26.92
2018-05-09T12:54:38.525Z,25.98
2018-05-09T12:55:38.493Z,25.49
2018-05-09T12:56:38.195Z,24.41
2018-05-09T12:57:38.401Z,24.41
2018-05-09T12:58:38.155Z,24.22
2018-05-09T12:59:38.258Z,24.71
2018-05-09T13:00:38.161Z,24.32
2018-05-09T13:01:38.160Z,24.52
2018-05-09T13:02:38.475Z,23.85
2018-05-09T13:03:38.219Z,25.51
2018-05-09T13:04:38.234Z,25.42
2018-05-09T13:05:38.185Z,26.00
2018-05-09T13:06:38.258Z,26.10
2018-05-09T13:07:38.460Z,26.40
2018-05-09T13:08:38.517Z,27.14
2018-05-09T13:09:38.324Z,28.22
2018-05-09T13:10:38.340Z,28.99
2018-05-09T13:11:38.207Z,28.51
2018-05-09T13:12:38.356Z,28.61
2018-05-09T13:13:38.324Z,28.23
2018-05-09T13:14:38.625Z,28.34
2018-05-09T13:15:38.385Z,28.26
2018-05-09T13:16:38.389Z,27.20
2018-05-09T13:17:38.444Z,26.91
2018-05-09T13:18:38.400Z,26.42
2018-05-09T13:19:38.729Z,26.42
2018-05-09T13:20:38.782Z,25.74
2018-05-09T13:21:38.271Z,24.95
2018-05-09T13:22:38.263Z,26.40
2018-05-09T13:23:38.264Z,26.89
2018-05-09T13:24:38.271Z,27.63
2018-05-09T13:25:38.550Z,28.22
2018-05-09T13:26:38.588Z,28.23
2018-05-09T13:27:38.422Z,27.06
2018-05-09T13:28:38.283Z,27.15
2018-05-09T13:29:38.307Z,27.63
2018-05-09T13:30:38.309Z,28.61
2018-05-09T13:32:39.108Z,28.65
2018-05-09T13:33:38.419Z,28.96
2018-05-09T13:34:38.381Z,27.11
2018-05-09T13:35:38.323Z,27.29
2018-05-09T13:36:39.019Z,28.92
2018-05-09T13:37:38.965Z,29.70
2018-05-09T13:38:40.051Z,30.08
2018-05-09T13:39:38.440Z,28.74
2018-05-09T13:40:38.450Z,28.93
2018-05-09T13:41:38.397Z,28.72
2018-05-09T13:42:38.344Z,29.46
2018-05-09T13:43:38.342Z,29.58
2018-05-09T13:44:39.032Z,28.82
2018-05-09T13:45:38.418Z,29.75
2018-05-09T13:46:38.450Z,30.40
2018-05-09T13:47:38.478Z,30.52
2018-05-09T13:48:39.029Z,29.63
2018-05-09T13:49:38.462Z,30.41
2018-05-09T13:50:38.927Z,30.68
2018-05-09T13:51:39.726Z,31.84
2018-05-09T13:52:38.374Z,31.78
2018-05-09T13:53:38.737Z,30.71
2018-05-09T13:54:38.510Z,30.52
2018-05-09T13:55:38.408Z,30.74
2018-05-09T13:56:38.648Z,30.41
2018-05-09T13:58:38.395Z,29.64
2018-05-09T13:59:38.414Z,29.83
2018-05-09T14:00:38.398Z,29.91